Time;durP1;ratioP1;P1;durP2;ratioP2;P2;SDS_P1;SDS_P2;PMS_P1;PMS_P2;Temp;Humidity;BMP_temperature;BMP_pressure;BME280_temperature;BME280_humidity;BME280_pressure;Samples;Min_cycle;Max_cycle;Signal;HPM_P1;HPM_P2
2021/10/23 00:00:35;;;;;;;13.75;5.35;;;;;;;6.36;88.93;102425.09;5054007;28;20027;-43
2021/10/23 00:03:01;;;;;;;10.07;3.92;;;;;;;6.33;88.29;102426.16;5053964;28;20364;-43
2021/10/23 00:05:26;;;;;;;13.32;3.85;;;;;;;6.31;88.29;102433.97;5054210;28;20028;-42
2021/10/23 00:07:51;;;;;;;11.35;3.72;;;;;;;6.35;88.63;102428.59;5053900;28;20031;-43
2021/10/23 00:10:17;;;;;;;15.27;4.00;;;;;;;6.30;87.84;102432.34;5036208;28;20090;-42
2021/10/23 00:12:42;;;;;;;10.88;3.70;;;;;;;6.47;87.45;102427.63;5053752;28;20068;-42
2021/10/23 00:15:08;;;;;;;13.00;3.45;;;;;;;6.43;87.53;102418.56;5053968;28;20471;-43
2021/10/23 00:17:33;;;;;;;10.93;4.05;;;;;;;6.33;88.14;102421.03;5054019;28;20032;-42
2021/10/23 00:20:00;;;;;;;13.02;3.58;;;;;;;6.36;88.24;102423.38;5053697;28;20024;-42
2021/10/23 00:22:27;;;;;;;15.13;3.35;;;;;;;6.27;87.92;102421.47;5035814;28;20093;-42
2021/10/23 00:24:52;;;;;;;13.13;3.20;;;;;;;6.22;87.93;102421.03;5053921;28;20382;-43
2021/10/23 00:27:18;;;;;;;17.33;3.80;;;;;;;6.18;88.14;102420.44;5053567;28;20033;-42
2021/10/23 00:29:43;;;;;;;12.52;3.88;;;;;;;6.23;87.72;102423.47;5053591;28;20104;-42
2021/10/23 00:32:08;;;;;;;10.55;3.63;;;;;;;6.23;87.58;102436.31;5053420;28;20459;-43
2021/10/23 00:34:33;;;;;;;8.23;3.33;;;;;;;6.21;87.77;102429.66;5054059;28;20079;-42
2021/10/23 00:36:59;;;;;;;14.60;4.03;;;;;;;6.22;87.75;102428.75;5053443;28;20028;-43
2021/10/23 00:39:25;;;;;;;13.55;4.25;;;;;;;6.19;87.30;102431.53;5053468;28;20100;-45
2021/10/23 00:41:50;;;;;;;12.90;3.83;;;;;;;6.12;88.33;102428.63;5052732;28;20486;-43
2021/10/23 00:44:27;;;;;;;22.77;4.18;;;;;;;6.03;87.77;102434.44;5035514;28;20035;-42
2021/10/23 00:46:53;;;;;;;8.75;3.50;;;;;;;5.99;88.14;102433.06;5053604;28;20071;-43
2021/10/23 00:49:18;;;;;;;10.88;3.40;;;;;;;6.01;88.43;102434.59;5053365;28;20382;-42
2021/10/23 00:51:43;;;;;;;16.30;3.90;;;;;;;5.91;87.94;102423.34;5053164;28;20028;-43
2021/10/23 00:54:09;;;;;;;11.82;3.30;;;;;;;5.83;87.53;102423.91;5053318;28;20021;-42
2021/10/23 00:56:35;;;;;;;14.75;3.65;;;;;;;5.89;87.92;102426.00;5053498;28;20024;-42
2021/10/23 00:59:00;;;;;;;13.30;3.72;;;;;;;5.88;87.93;102424.38;5053253;28;20025;-42
2021/10/23 01:01:25;;;;;;;13.85;4.90;;;;;;;5.89;87.84;102426.00;5053159;28;20049;-43
2021/10/23 01:03:51;;;;;;;12.13;4.28;;;;;;;5.85;88.04;102434.06;5053201;28;20383;-43
2021/10/23 01:06:16;;;;;;;17.00;4.18;;;;;;;5.81;87.80;102436.06;5053155;28;20100;-43
2021/10/23 01:08:41;;;;;;;15.90;4.00;;;;;;;5.78;88.18;102433.72;5053202;28;20032;-43
2021/10/23 01:11:06;;;;;;;11.10;4.10;;;;;;;5.74;87.92;102432.28;5052900;28;20069;-42
2021/10/23 01:13:32;;;;;;;10.45;3.30;;;;;;;5.66;87.10;102421.78;5053097;28;20079;-43
2021/10/23 01:15:57;;;;;;;12.88;3.22;;;;;;;5.72;88.01;102421.31;5053072;28;20071;-43
2021/10/23 01:18:22;;;;;;;8.82;2.90;;;;;;;5.83;86.62;102431.59;5053868;28;20036;-42
2021/10/23 01:20:47;;;;;;;11.65;3.05;;;;;;;5.88;86.46;102421.81;5053009;28;20159;-43
2021/10/23 01:23:13;;;;;;;7.75;2.88;;;;;;;5.91;87.33;102420.78;5053294;28;20150;-43
2021/10/23 01:25:38;;;;;;;6.00;2.78;;;;;;;5.88;87.88;102423.56;5052998;28;20421;-43
2021/10/23 01:28:04;;;;;;;12.02;3.30;;;;;;;5.82;87.99;102427.41;5052989;28;20037;-43
2021/10/23 01:30:30;;;;;;;6.32;2.80;;;;;;;5.74;87.77;102418.66;5052856;28;20035;-42
2021/10/23 01:32:57;;;;;;;8.35;3.00;;;;;;;5.75;87.92;102417.72;5053229;28;20036;-43
2021/10/23 01:35:24;;;;;;;7.80;2.63;;;;;;;5.72;87.66;102420.50;5053151;28;20033;-43
2021/10/23 01:37:50;;;;;;;12.60;2.80;;;;;;;5.65;87.91;102426.09;5052874;28;20482;-43
2021/10/23 01:40:19;;;;;;;6.65;2.65;;;;;;;5.65;87.86;102422.72;5052891;28;20033;-42
2021/10/23 01:42:44;;;;;;;9.57;2.90;;;;;;;5.53;87.87;102423.66;5052802;28;20445;-45
2021/10/23 01:45:11;;;;;;;10.80;2.83;;;;;;;5.51;88.54;102428.06;5035841;28;20116;-43
2021/10/23 01:47:38;;;;;;;9.63;3.03;;;;;;;5.59;88.17;102425.75;5052735;28;20086;-42
2021/10/23 01:50:04;;;;;;;7.47;2.72;;;;;;;5.60;87.75;102432.50;5053064;28;20352;-52
2021/10/23 01:52:29;;;;;;;8.02;2.50;;;;;;;5.59;87.91;102421.44;5052650;28;20086;-42
2021/10/23 01:54:54;;;;;;;10.35;2.80;;;;;;;5.55;88.10;102414.91;5056869;28;20032;-41
2021/10/23 01:57:20;;;;;;;10.13;2.70;;;;;;;5.58;87.59;102435.19;5056351;28;20044;-42
2021/10/23 01:59:45;;;;;;;9.73;2.67;;;;;;;5.47;87.84;102445.44;5056977;28;20029;-42
2021/10/23 02:02:11;;;;;;;9.82;2.67;;;;;;;5.47;87.89;102450.56;5056236;28;20017;-42
2021/10/23 02:04:37;;;;;;;10.02;3.05;;;;;;;5.40;88.84;102447.59;5056208;28;20025;-42
2021/10/23 02:07:02;;;;;;;6.93;2.38;;;;;;;5.44;88.46;102448.22;5056160;28;20032;-42
2021/10/23 02:09:28;;;;;;;18.17;3.40;;;;;;;5.53;88.59;102459.56;5055994;28;20037;-42
2021/10/23 02:11:53;;;;;;;9.27;2.92;;;;;;;5.60;88.77;102458.16;5056611;28;20072;-42
2021/10/23 02:14:18;;;;;;;10.02;2.85;;;;;;;5.60;89.31;102448.72;5056231;28;20021;-42
2021/10/23 02:16:44;;;;;;;9.75;2.70;;;;;;;5.55;88.51;102452.53;5055942;28;20025;-42
2021/10/23 02:19:09;;;;;;;9.27;2.88;;;;;;;5.60;88.29;102451.28;5055933;28;20027;-42
2021/10/23 02:21:34;;;;;;;10.52;3.22;;;;;;;5.65;88.40;102451.75;5038091;28;20074;-42
2021/10/23 02:23:59;;;;;;;7.78;2.80;;;;;;;5.44;87.99;102445.66;5038026;28;20080;-42
2021/10/23 02:26:25;;;;;;;9.15;2.85;;;;;;;5.28;88.10;102432.31;5055828;28;20032;-41
2021/10/23 02:28:50;;;;;;;8.32;2.78;;;;;;;5.42;88.19;102448.31;5055732;28;20032;-43
2021/10/23 02:31:15;;;;;;;12.93;3.15;;;;;;;5.24;88.46;102436.84;5055947;28;20094;-52
2021/10/23 02:33:41;;;;;;;9.95;3.17;;;;;;;5.31;88.45;102448.28;5055762;28;20466;-42
2021/10/23 02:36:06;;;;;;;11.35;3.00;;;;;;;5.29;88.85;102439.06;5055866;28;20021;-42
2021/10/23 02:38:32;;;;;;;9.60;3.22;;;;;;;5.23;88.65;102435.19;5055594;28;20040;-42
2021/10/23 02:40:57;;;;;;;10.20;3.00;;;;;;;5.24;88.97;102436.84;5056148;28;20029;-41
2021/10/23 02:43:24;;;;;;;7.78;2.78;;;;;;;5.17;88.53;102438.22;5037679;28;20347;-41
2021/10/23 02:45:49;;;;;;;7.40;2.42;;;;;;;5.15;88.94;102437.50;5056146;28;20033;-42
2021/10/23 02:48:15;;;;;;;12.82;3.25;;;;;;;5.10;88.28;102429.34;5055385;28;20036;-43
2021/10/23 02:50:41;;;;;;;10.35;3.13;;;;;;;5.06;88.57;102451.78;5055284;28;20033;-42
2021/10/23 02:53:06;;;;;;;6.82;2.65;;;;;;;5.04;88.93;102457.97;5037902;28;20017;-42
2021/10/23 02:55:32;;;;;;;8.32;2.90;;;;;;;5.03;88.90;102459.69;5055265;28;20500;-42
2021/10/23 02:57:57;;;;;;;7.68;2.95;;;;;;;4.97;88.29;102468.63;5055506;28;20036;-43
2021/10/23 03:00:23;;;;;;;8.20;2.72;;;;;;;4.90;88.59;102466.63;5055433;28;20028;-43
2021/10/23 03:02:49;;;;;;;7.85;2.60;;;;;;;4.92;88.32;102468.16;5055133;28;20021;-43
2021/10/23 03:05:15;;;;;;;12.68;2.70;;;;;;;4.87;88.47;102477.09;5054360;28;20025;-41
2021/10/23 03:07:40;;;;;;;7.97;2.72;;;;;;;4.81;88.76;102470.66;5037271;28;20025;-43
2021/10/23 03:10:06;;;;;;;9.35;2.80;;;;;;;4.66;88.71;102446.94;5054947;28;20075;-43
2021/10/23 03:12:31;;;;;;;6.75;2.65;;;;;;;4.74;88.32;102474.56;5055117;28;20033;-48
2021/10/23 03:14:56;;;;;;;9.82;2.92;;;;;;;4.70;88.59;102478.28;5054945;28;20031;-42
2021/10/23 03:17:22;;;;;;;6.85;3.00;;;;;;;4.67;88.31;102481.06;5054893;28;20379;-43
2021/10/23 03:19:47;;;;;;;12.23;2.55;;;;;;;4.64;88.96;102484.63;5055044;28;20025;-42
2021/10/23 03:22:12;;;;;;;7.07;2.63;;;;;;;4.65;89.21;102491.38;5055020;28;20017;-42
2021/10/23 03:24:37;;;;;;;6.57;2.67;;;;;;;4.64;88.65;102486.38;5054984;28;20463;-42
2021/10/23 03:27:03;;;;;;;8.00;2.80;;;;;;;4.65;89.47;102493.13;5054890;28;20021;-43
2021/10/23 03:29:28;;;;;;;7.10;2.70;;;;;;;4.57;88.80;102493.66;5054648;28;20029;-43
2021/10/23 03:31:53;;;;;;;12.40;2.65;;;;;;;4.58;88.85;102491.94;5055032;28;20159;-42
2021/10/23 03:34:19;;;;;;;7.55;2.53;;;;;;;4.59;88.97;102494.38;5054719;28;20374;-43
2021/10/23 03:36:44;;;;;;;6.03;2.33;;;;;;;4.56;88.60;102494.59;5055021;28;20025;-43
2021/10/23 03:39:09;;;;;;;8.27;2.45;;;;;;;4.57;88.62;102496.22;5054416;28;20033;-42
2021/10/23 03:41:36;;;;;;;3.80;2.30;;;;;;;4.61;88.94;102494.28;5054624;28;20029;-43
2021/10/23 03:44:02;;;;;;;8.23;2.63;;;;;;;4.58;89.18;102497.06;5054587;28;20029;-42
2021/10/23 03:46:28;;;;;;;8.27;2.45;;;;;;;4.55;88.87;102495.53;5054273;28;20033;-42
2021/10/23 03:48:53;;;;;;;14.80;7.45;;;;;;;4.55;89.35;102498.06;5054209;28;20537;-42
2021/10/23 03:51:18;;;;;;;24.08;10.15;;;;;;;4.64;89.08;102491.50;5054680;28;20033;-43
2021/10/23 03:53:43;;;;;;;24.63;10.50;;;;;;;4.60;88.82;102493.44;5054749;28;20075;-43
2021/10/23 03:56:09;;;;;;;17.80;9.07;;;;;;;4.57;88.34;102497.97;5054106;28;20382;-42
2021/10/23 03:58:34;;;;;;;16.83;6.60;;;;;;;4.45;88.75;102495.31;5054341;28;20025;-43
2021/10/23 04:00:59;;;;;;;15.18;6.78;;;;;;;4.60;89.48;102506.25;5054193;28;20071;-43
2021/10/23 04:03:24;;;;;;;14.07;5.13;;;;;;;4.59;89.52;102503.81;5054221;28;20045;-42
2021/10/23 04:05:50;;;;;;;10.00;3.08;;;;;;;4.65;89.43;102500.81;5053928;28;20049;-42
2021/10/23 04:08:15;;;;;;;9.57;3.22;;;;;;;4.70;89.71;102502.13;5053874;28;20025;-42
2021/10/23 04:10:40;;;;;;;10.35;3.30;;;;;;;4.62;89.33;102504.41;5053697;28;20056;-42
2021/10/23 04:13:06;;;;;;;10.30;3.22;;;;;;;4.51;88.62;102506.88;5053835;28;20033;-42
2021/10/23 04:15:32;;;;;;;11.40;4.10;;;;;;;4.51;88.63;102509.44;5054300;28;20024;-42
2021/10/23 04:17:58;;;;;;;6.57;2.85;;;;;;;4.52;89.58;102496.53;5053024;28;20463;-41
2021/10/23 04:20:23;;;;;;;10.93;3.38;;;;;;;4.55;89.14;102498.06;5053705;28;20028;-42
2021/10/23 04:22:48;;;;;;;7.45;2.85;;;;;;;4.66;89.80;102510.97;5053695;28;20017;-42
2021/10/23 04:25:14;;;;;;;7.32;2.50;;;;;;;4.61;88.77;102509.66;5053653;28;20350;-43
2021/10/23 04:27:39;;;;;;;8.25;3.00;;;;;;;4.61;89.08;102515.56;5053601;28;20021;-42
2021/10/23 04:30:05;;;;;;;9.20;3.95;;;;;;;4.63;89.42;102521.41;5053557;28;20028;-42
2021/10/23 04:32:31;;;;;;;17.38;4.18;;;;;;;4.77;89.72;102519.63;5053418;28;20025;-50
2021/10/23 04:34:56;;;;;;;12.35;2.67;;;;;;;5.03;88.66;102523.75;5053516;28;20520;-42
2021/10/23 04:37:22;;;;;;;6.03;2.55;;;;;;;5.16;87.10;102526.28;5053446;28;20043;-42
2021/10/23 04:39:47;;;;;;;7.97;2.20;;;;;;;5.10;87.66;102516.47;5053470;28;20029;-42
2021/10/23 04:42:12;;;;;;;7.97;2.60;;;;;;;5.06;87.76;102518.41;5053397;28;20505;-43
2021/10/23 04:44:38;;;;;;;5.60;2.20;;;;;;;5.00;88.00;102523.16;5053334;28;20028;-42
2021/10/23 04:47:03;;;;;;;6.82;2.25;;;;;;;4.91;88.08;102524.63;5053880;28;20027;-42
2021/10/23 04:49:28;;;;;;;8.65;2.80;;;;;;;4.88;88.41;102524.84;5053309;28;20470;-42
2021/10/23 04:51:54;;;;;;;7.15;2.72;;;;;;;4.90;88.14;102538.38;5053214;28;20078;-42
2021/10/23 04:54:19;;;;;;;8.20;2.60;;;;;;;4.85;88.86;102528.41;5053321;28;20056;-43
2021/10/23 04:56:44;;;;;;;7.35;2.40;;;;;;;4.94;88.29;102532.91;5053552;28;20069;-42
2021/10/23 04:59:09;;;;;;;8.68;2.80;;;;;;;4.93;87.51;102528.72;5053209;28;20467;-42
2021/10/23 05:01:35;;;;;;;6.68;2.40;;;;;;;5.03;88.37;102528.06;5053120;28;20021;-42
2021/10/23 05:04:00;;;;;;;8.27;2.25;;;;;;;5.08;87.70;102533.69;5053215;28;20051;-41
2021/10/23 05:06:25;;;;;;;7.43;2.20;;;;;;;5.03;88.22;102536.56;5035349;28;20036;-42
2021/10/23 05:08:51;;;;;;;6.47;2.22;;;;;;;5.00;87.83;102535.97;5053991;28;20021;-42
2021/10/23 05:11:16;;;;;;;6.75;2.42;;;;;;;4.94;88.57;102548.28;5052961;28;20045;-44
2021/10/23 05:13:42;;;;;;;6.45;2.25;;;;;;;4.89;87.98;102544.38;5053339;28;20108;-42
2021/10/23 05:16:07;;;;;;;5.18;2.22;;;;;;;4.86;87.98;102534.38;5053065;28;20068;-42
2021/10/23 05:18:32;;;;;;;5.65;2.10;;;;;;;4.83;88.73;102543.06;5053041;28;20029;-43
2021/10/23 05:20:58;;;;;;;8.50;2.15;;;;;;;4.87;87.65;102541.94;5053600;28;20033;-44
2021/10/23 05:23:23;;;;;;;5.40;2.38;;;;;;;4.84;87.88;102538.78;5053091;28;20033;-43
2021/10/23 05:25:48;;;;;;;6.32;2.45;;;;;;;4.72;87.72;102537.91;5053538;28;20467;-43
2021/10/23 05:28:14;;;;;;;9.18;2.78;;;;;;;4.64;88.78;102540.97;5054088;28;20035;-43
2021/10/23 05:30:39;;;;;;;10.43;2.40;;;;;;;4.70;88.19;102538.00;5056757;28;20017;-43
2021/10/23 05:33:05;;;;;;;10.32;2.40;;;;;;;4.74;88.60;102534.28;5057197;28;20028;-43
2021/10/23 05:35:30;;;;;;;7.13;2.20;;;;;;;4.70;87.95;102539.72;5057125;28;20080;-43
2021/10/23 05:37:56;;;;;;;6.55;2.60;;;;;;;4.60;88.80;102536.16;5056788;28;20024;-43
2021/10/23 05:40:21;;;;;;;7.07;2.30;;;;;;;4.57;89.37;102538.94;5056705;28;20025;-43
2021/10/23 05:42:46;;;;;;;7.47;2.72;;;;;;;4.60;89.31;102543.84;5038821;28;20032;-44
2021/10/23 05:45:12;;;;;;;13.02;3.20;;;;;;;4.75;88.19;102547.94;5057165;28;20158;-42
2021/10/23 05:47:37;;;;;;;10.15;2.70;;;;;;;4.71;87.77;102546.47;5056861;28;20526;-42
2021/10/23 05:50:04;;;;;;;14.10;2.60;;;;;;;4.71;87.65;102551.59;5056726;28;20052;-43
2021/10/23 05:52:29;;;;;;;10.55;3.30;;;;;;;4.81;88.04;102549.25;5038422;28;20086;-43
2021/10/23 05:54:55;;;;;;;9.55;2.47;;;;;;;4.79;87.65;102548.53;5056409;28;20021;-43
2021/10/23 05:57:20;;;;;;;7.43;2.42;;;;;;;4.70;87.95;102549.97;5056353;28;20393;-41
2021/10/23 05:59:48;;;;;;;9.30;2.72;;;;;;;4.65;88.98;102564.84;5038367;28;20032;-42
2021/10/23 06:02:25;;;;;;;9.07;2.80;;;;;;;4.59;88.49;102570.38;5038456;28;20479;-42
2021/10/23 06:04:55;;;;;;;9.35;2.85;;;;;;;4.75;88.45;102582.03;5038399;28;20142;-43
2021/10/23 06:07:22;;;;;;;6.90;2.67;;;;;;;4.85;88.95;102579.66;5056787;28;20020;-43
2021/10/23 06:09:48;;;;;;;9.05;2.50;;;;;;;5.00;88.55;102579.53;5056065;28;20041;-43
2021/10/23 06:12:13;;;;;;;8.73;2.65;;;;;;;5.18;88.73;102588.53;5056251;28;20036;-43
2021/10/23 06:14:39;;;;;;;11.48;3.13;;;;;;;5.23;87.59;102590.75;5055989;28;20395;-44
2021/10/23 06:17:07;;;;;;;8.52;2.65;;;;;;;5.25;87.94;102597.41;5055882;28;20024;-42
2021/10/23 06:19:33;;;;;;;11.90;2.67;;;;;;;5.33;88.09;102595.13;5055848;28;20031;-43
2021/10/23 06:21:59;;;;;;;8.77;2.70;;;;;;;5.29;88.10;102595.44;5056170;28;20054;-41
2021/10/23 06:24:25;;;;;;;8.07;2.53;;;;;;;5.45;87.64;102606.25;5055882;28;20545;-43
2021/10/23 06:26:50;;;;;;;7.40;2.70;;;;;;;5.51;87.81;102599.88;5021485;28;20025;-42
2021/10/23 06:29:15;;;;;;;9.57;2.88;;;;;;;5.59;87.57;102603.53;5055824;28;20486;-43
2021/10/23 06:31:40;;;;;;;10.30;3.10;;;;;;;5.70;87.42;102600.22;5037794;28;20024;-43
2021/10/23 06:34:07;;;;;;;6.40;2.60;;;;;;;5.72;88.23;102595.75;5055720;28;20107;-42
2021/10/23 06:36:32;;;;;;;10.05;2.78;;;;;;;5.72;87.90;102612.91;5055716;28;20157;-42
2021/10/23 06:38:57;;;;;;;6.82;3.03;;;;;;;5.78;87.55;102610.75;5055351;28;20041;-43
2021/10/23 06:41:22;;;;;;;10.25;3.00;;;;;;;5.84;87.34;102609.44;5054846;28;20013;-43
2021/10/23 06:43:48;;;;;;;9.20;3.30;;;;;;;5.96;86.82;102616.31;5037602;28;20449;-41
2021/10/23 06:46:13;;;;;;;12.68;3.40;;;;;;;6.00;85.71;102627.16;5037466;28;20087;-43
2021/10/23 06:48:38;;;;;;;7.68;3.10;;;;;;;6.02;85.78;102628.69;5055462;28;20052;-43
2021/10/23 06:51:04;;;;;;;7.45;3.20;;;;;;;6.17;84.87;102633.63;5037308;28;20537;-42
2021/10/23 06:53:29;;;;;;;8.20;3.10;;;;;;;5.94;84.79;102632.75;5037477;28;20029;-42
2021/10/23 06:55:54;;;;;;;10.13;3.40;;;;;;;5.97;85.51;102628.22;5055315;28;20104;-42
2021/10/23 06:58:19;;;;;;;14.52;3.55;;;;;;;6.07;86.07;102641.19;5055452;28;20033;-43
2021/10/23 07:00:45;;;;;;;14.10;4.00;;;;;;;6.03;85.83;102648.28;5055161;28;20023;-43
2021/10/23 07:03:10;;;;;;;13.95;4.25;;;;;;;6.07;85.59;102648.88;5055086;28;20378;-42
2021/10/23 07:05:35;;;;;;;17.10;4.30;;;;;;;6.14;85.92;102644.94;5055399;28;20025;-43
2021/10/23 07:08:01;;;;;;;10.63;4.13;;;;;;;6.05;86.12;102654.13;5054996;28;20017;-42
2021/10/23 07:10:26;;;;;;;11.85;4.15;;;;;;;6.22;86.31;102652.91;5054825;28;20144;-42
2021/10/23 07:12:52;;;;;;;12.85;4.40;;;;;;;6.28;85.27;102654.22;5054734;28;20139;-43
2021/10/23 07:15:18;;;;;;;10.52;3.75;;;;;;;6.31;85.88;102667.63;5054849;28;20112;-42
2021/10/23 07:17:44;;;;;;;8.13;3.60;;;;;;;6.31;85.26;102667.63;5054882;28;20108;-43
2021/10/23 07:20:10;;;;;;;15.10;4.47;;;;;;;6.30;86.00;102673.72;5054792;28;20024;-44
2021/10/23 07:22:35;;;;;;;10.60;4.13;;;;;;;6.43;85.66;102670.25;5055016;28;20498;-44
2021/10/23 07:25:02;;;;;;;12.57;4.07;;;;;;;6.67;84.93;102668.41;5055000;28;20057;-42
2021/10/23 07:27:27;;;;;;;13.13;6.30;;;;;;;6.79;84.37;102671.81;5054640;28;20059;-43
2021/10/23 07:29:52;;;;;;;16.08;5.35;;;;;;;6.81;84.05;102666.56;5054651;28;20060;-43
2021/10/23 07:32:18;;;;;;;13.65;4.43;;;;;;;6.93;83.69;102666.47;5036670;28;20028;-43
2021/10/23 07:34:43;;;;;;;10.10;3.88;;;;;;;7.11;83.32;102671.13;5054835;28;20063;-43
2021/10/23 07:37:08;;;;;;;13.55;4.80;;;;;;;7.16;83.82;102664.69;5054449;28;20025;-42
2021/10/23 07:39:34;;;;;;;8.88;3.78;;;;;;;7.30;83.89;102678.22;5054462;28;20027;-42
2021/10/23 07:42:00;;;;;;;8.77;3.67;;;;;;;7.24;84.56;102654.63;5054391;28;20013;-43
2021/10/23 07:44:25;;;;;;;13.50;3.92;;;;;;;7.43;83.92;102690.03;5036572;28;20029;-43
2021/10/23 07:46:50;;;;;;;11.50;4.60;;;;;;;7.40;84.80;102692.03;5054571;28;20513;-43
2021/10/23 07:49:16;;;;;;;15.57;4.28;;;;;;;7.23;85.56;102691.56;5054514;28;20368;-42
2021/10/23 07:51:41;;;;;;;11.85;3.60;;;;;;;7.36;84.69;102688.03;5053815;28;20082;-43
2021/10/23 07:54:08;;;;;;;13.95;5.18;;;;;;;7.38;86.15;102705.00;5054744;28;20029;-43
2021/10/23 07:56:35;;;;;;;10.77;4.55;;;;;;;7.52;86.24;102703.09;5054144;28;20533;-44
2021/10/23 07:59:00;;;;;;;7.28;4.38;;;;;;;7.55;85.66;102705.44;5054094;28;20052;-43
2021/10/23 08:01:27;;;;;;;14.63;4.18;;;;;;;7.73;86.14;102710.91;5054241;28;20041;-43
2021/10/23 08:03:53;;;;;;;15.32;4.30;;;;;;;7.78;85.87;102706.22;5036144;28;20029;-43
2021/10/23 08:06:19;;;;;;;14.00;4.63;;;;;;;7.75;86.57;102706.44;5054015;28;20086;-43
2021/10/23 08:08:44;;;;;;;13.82;4.40;;;;;;;7.99;86.10;102707.06;5054178;28;20023;-43
2021/10/23 08:11:09;;;;;;;11.38;4.43;;;;;;;8.06;85.34;102713.38;5053484;28;20128;-43
2021/10/23 08:13:35;;;;;;;16.15;4.30;;;;;;;8.23;85.87;102708.59;5053864;28;20021;-43
2021/10/23 08:16:01;;;;;;;8.52;3.88;;;;;;;8.29;85.33;102711.53;5054042;28;20025;-44
2021/10/23 08:18:27;;;;;;;10.43;4.45;;;;;;;8.40;85.51;102713.25;5054071;28;20028;-44
2021/10/23 08:20:53;;;;;;;15.80;4.78;;;;;;;8.55;85.51;102722.31;5035977;28;20098;-41
2021/10/23 08:23:18;;;;;;;12.50;4.50;;;;;;;8.59;85.30;102726.25;5053744;28;20462;-42
2021/10/23 08:25:44;;;;;;;11.25;4.22;;;;;;;8.63;86.11;102729.41;5035823;28;20071;-42
2021/10/23 08:28:09;;;;;;;18.45;5.15;;;;;;;8.61;86.42;102727.91;5053929;28;20096;-42
2021/10/23 08:30:35;;;;;;;14.73;4.72;;;;;;;8.79;85.43;102734.09;5053845;28;20048;-43
2021/10/23 08:33:01;;;;;;;14.88;5.10;;;;;;;8.81;85.32;102727.06;5053546;28;20466;-43
2021/10/23 08:35:27;;;;;;;14.68;5.10;;;;;;;8.79;85.91;102723.78;5053480;28;20379;-43
2021/10/23 08:37:54;;;;;;;10.30;4.93;;;;;;;8.78;86.41;102704.13;5053532;28;20029;-43
2021/10/23 08:40:21;;;;;;;12.77;5.35;;;;;;;8.70;86.31;102701.38;5053476;28;20052;-43
2021/10/23 08:42:46;;;;;;;13.18;5.32;;;;;;;8.68;87.05;102700.66;5053762;28;20032;-44
2021/10/23 08:45:14;;;;;;;12.98;5.05;;;;;;;8.79;86.87;102703.97;5053477;28;20383;-43
2021/10/23 08:47:40;;;;;;;16.42;5.38;;;;;;;8.91;86.71;102714.22;5053403;28;20025;-44
2021/10/23 08:50:08;;;;;;;16.30;5.57;;;;;;;9.03;86.97;102721.75;5053681;28;20379;-42
2021/10/23 08:52:34;;;;;;;15.52;6.30;;;;;;;9.09;86.24;102717.00;5053755;28;20442;-44
2021/10/23 08:54:59;;;;;;;15.82;5.72;;;;;;;9.23;86.32;102729.56;5036032;28;20056;-43
2021/10/23 08:57:26;;;;;;;14.57;5.82;;;;;;;9.12;85.97;102701.25;5053228;28;20454;-44
2021/10/23 09:00:01;;;;;;;16.25;6.10;;;;;;;9.26;86.08;102722.38;5053422;28;20052;-44
2021/10/23 09:02:27;;;;;;;13.45;5.97;;;;;;;9.32;86.30;102726.22;5035416;28;20071;-42
2021/10/23 09:04:54;;;;;;;15.68;6.25;;;;;;;9.37;86.56;102728.38;5057508;28;20116;-45
2021/10/23 09:07:23;;;;;;;18.38;6.93;;;;;;;9.48;86.89;102725.69;5057863;28;20029;-43
2021/10/23 09:09:59;;;;;;;13.25;6.70;;;;;;;9.62;86.21;102725.31;5057397;28;20128;-45
2021/10/23 09:12:31;;;;;;;16.02;6.97;;;;;;;9.88;85.66;102738.53;5057252;28;20017;-43
2021/10/23 09:15:03;;;;;;;16.17;7.00;;;;;;;10.07;85.30;102734.34;5039828;28;20090;-43
2021/10/23 09:17:29;;;;;;;12.93;6.80;;;;;;;10.12;84.56;102745.06;5057883;28;20036;-44
2021/10/23 09:19:57;;;;;;;24.55;7.32;;;;;;;10.16;84.86;102738.72;5057215;28;20047;-43
2021/10/23 09:22:32;;;;;;;15.48;7.68;;;;;;;10.16;84.54;102741.28;5039276;28;20025;-42
2021/10/23 09:25:11;;;;;;;14.77;6.88;;;;;;;10.16;84.28;102749.03;5057340;28;20102;-44
2021/10/23 09:27:48;;;;;;;15.25;7.63;;;;;;;10.22;84.13;102740.75;5057193;28;20025;-43
2021/10/23 09:30:18;;;;;;;16.13;7.88;;;;;;;10.22;84.76;102739.94;5039322;28;20044;-44
2021/10/23 09:32:52;;;;;;;14.93;7.80;;;;;;;10.14;85.05;102738.81;5056797;28;20106;-43
2021/10/23 09:35:18;;;;;;;16.15;8.60;;;;;;;10.29;85.06;102743.63;5056908;28;20532;-43
2021/10/23 09:37:45;;;;;;;16.33;8.27;;;;;;;10.32;85.01;102753.69;5038994;28;20020;-44
2021/10/23 09:40:15;;;;;;;16.30;8.40;;;;;;;10.60;84.18;102758.00;5056894;28;20032;-44
2021/10/23 09:42:40;;;;;;;16.05;8.50;;;;;;;11.22;82.45;102752.38;5056774;28;20020;-44
2021/10/23 09:45:06;;;;;;;20.10;11.25;;;;;;;11.89;78.95;102753.00;5038839;28;20021;-44
2021/10/23 09:47:43;;;;;;;24.30;13.65;;;;;;;12.19;77.73;102756.97;5056989;28;20025;-44
2021/10/23 09:50:13;;;;;;;27.95;16.55;;;;;;;12.39;77.98;102753.25;5056607;28;20035;-44
2021/10/23 09:52:57;;;;;;;28.88;18.05;;;;;;;11.96;79.11;102760.00;5057257;28;20032;-44
2021/10/23 09:55:23;;;;;;;23.92;13.65;;;;;;;11.68;79.68;102761.00;5039060;28;20048;-43
2021/10/23 09:58:06;;;;;;;16.05;10.20;;;;;;;11.30;80.11;102755.88;5056485;28;20482;-43
2021/10/23 10:00:32;;;;;;;17.63;9.48;;;;;;;10.93;82.58;102760.25;5056530;28;20462;-43
2021/10/23 10:02:58;;;;;;;16.48;8.65;;;;;;;10.75;82.88;102770.50;5038384;28;20075;-43
2021/10/23 10:05:23;;;;;;;18.23;8.90;;;;;;;10.75;83.79;102767.91;5056617;28;20025;-43
2021/10/23 10:07:49;;;;;;;17.02;8.02;;;;;;;10.76;83.01;102761.78;5057389;28;20520;-42
2021/10/23 10:10:14;;;;;;;15.55;8.60;;;;;;;10.82;82.95;102767.22;5035650;28;20077;-45
2021/10/23 10:12:40;;;;;;;18.35;8.40;;;;;;;10.79;83.23;102759.75;5036500;28;20028;-44
2021/10/23 10:15:06;;;;;;;15.75;8.55;;;;;;;10.66;83.79;102759.22;5035257;28;20491;-42
2021/10/23 10:17:33;;;;;;;20.45;8.90;;;;;;;10.76;83.74;102775.53;5036115;28;20029;-42
2021/10/23 10:19:59;;;;;;;14.15;8.73;;;;;;;10.75;83.95;102776.47;5036007;28;20033;-43
2021/10/23 10:22:25;;;;;;;20.65;8.95;;;;;;;10.76;84.33;102780.72;5035839;28;20013;-43
2021/10/23 10:24:50;;;;;;;21.55;9.90;;;;;;;10.61;84.76;102777.72;5036053;28;20032;-42
2021/10/23 10:27:20;;;;;;;17.55;9.38;;;;;;;10.53;85.30;102781.94;5035730;28;20029;-45
2021/10/23 10:29:59;;;;;;;19.63;9.32;;;;;;;10.51;85.91;102783.88;5035025;28;20534;-44
2021/10/23 10:32:39;;;;;;;20.60;9.65;;;;;;;10.70;85.25;102785.59;5035874;28;20036;-43
2021/10/23 10:35:43;;;;;;;17.23;9.20;;;;;;;10.74;85.06;102782.63;5034239;28;20472;-43
2021/10/23 10:38:40;;;;;;;18.15;8.98;;;;;;;10.68;85.10;102772.84;5034301;28;20467;-44
2021/10/23 10:44:26;;;;;;;16.83;9.20;;;;;;;11.11;83.68;102789.63;5035755;28;20051;-43
2021/10/23 10:46:54;;;;;;;17.38;8.52;;;;;;;11.30;82.76;102784.34;5035284;28;20068;-43
2021/10/23 10:49:53;;;;;;;17.15;8.10;;;;;;;11.15;81.77;102784.97;5035298;28;20032;-42
2021/10/23 10:52:40;;;;;;;16.13;8.38;;;;;;;11.21;81.73;102785.19;5023669;28;20038;-42
2021/10/23 10:55:12;;;;;;;19.88;8.98;;;;;;;11.19;81.37;102783.72;5035410;28;20029;-43
2021/10/23 10:57:56;;;;;;;18.05;9.30;;;;;;;11.38;82.05;102780.25;5035080;28;20024;-43
2021/10/23 11:00:21;;;;;;;18.85;9.45;;;;;;;11.30;81.28;102771.41;5035468;28;20021;-43
2021/10/23 11:02:47;;;;;;;17.35;8.85;;;;;;;11.44;81.64;102771.91;5034807;28;20411;-42
2021/10/23 11:05:17;;;;;;;18.90;8.63;;;;;;;11.52;80.94;102770.22;5035228;28;20366;-44
2021/10/23 11:08:03;;;;;;;14.15;7.88;;;;;;;11.45;80.88;102758.81;5035253;28;20029;-43
2021/10/23 11:10:48;;;;;;;15.95;8.00;;;;;;;11.48;80.60;102760.31;5047017;28;20106;-43
2021/10/23 11:13:24;;;;;;;20.35;8.50;;;;;;;11.42;80.60;102759.13;5054938;28;20029;-43
2021/10/23 11:15:49;;;;;;;18.90;7.85;;;;;;;11.21;81.32;102755.94;5055334;28;20033;-42
2021/10/23 11:18:17;;;;;;;13.10;8.40;;;;;;;11.15;82.06;102765.06;5054716;28;20494;-44
2021/10/23 11:20:44;;;;;;;16.05;8.82;;;;;;;11.28;81.97;102751.81;5054644;28;20386;-43
2021/10/23 11:23:18;;;;;;;15.38;8.98;;;;;;;11.31;81.68;102748.94;5036753;28;20033;-43
2021/10/23 11:25:43;;;;;;;15.95;8.13;;;;;;;11.38;81.35;102755.16;5054203;28;20028;-43
2021/10/23 11:28:12;;;;;;;18.25;8.50;;;;;;;11.36;81.76;102757.06;5054442;28;20029;-43